Terminal Aerodrome Forecast
Issued by NWS

Home | Current Version | Previous Version | Text Only | Print | Product List | Glossary On
Versions: 1 2 3 4 5 6 7 8 9 10 11 12 13 14 15 16 17 18 19 20 21 22 23 24 25 26
000
FTUS43 KABR 301700
TAFATY
TAF
KATY 301730Z 3018/0118 10012G20KT P6SM OVC010
     FM302100 15022G31KT P6SM SCT010
     FM010000 16017G25KT P6SM VCTS OVC040CB
     FM010500 18012KT P6SM BKN035
     FM011200 23008KT P6SM OVC035=

USA.gov is the U.S. government's official web portal to all federal, state and local government web resources and services.